createdAt,value
2022-11-26T00:01:17.311Z,18.40
2022-11-26T00:03:44.051Z,16.85
2022-11-26T00:06:26.358Z,15.93
2022-11-26T00:08:53.136Z,16.02
2022-11-26T00:11:19.788Z,15.40
2022-11-26T00:13:46.336Z,15.82
2022-11-26T00:16:14.466Z,16.30
2022-11-26T00:18:44.091Z,15.77
2022-11-26T00:23:57.249Z,14.23
2022-11-26T00:26:24.994Z,15.73
2022-11-26T00:29:00.313Z,14.00
2022-11-26T00:31:28.635Z,16.05
2022-11-26T00:33:55.306Z,17.50
2022-11-26T00:36:25.126Z,16.58
2022-11-26T00:39:19.410Z,15.23
2022-11-26T00:41:51.467Z,13.32
2022-11-26T00:44:22.129Z,14.73
2022-11-26T00:46:49.449Z,14.30
2022-11-26T00:49:16.770Z,15.05
2022-11-26T00:51:43.459Z,15.02
2022-11-26T00:54:13.310Z,14.70
2022-11-26T00:56:40.098Z,14.73
2022-11-26T00:59:06.642Z,17.88
2022-11-26T01:01:33.304Z,16.50
2022-11-26T01:03:59.895Z,15.45
2022-11-26T01:06:31.968Z,15.10
2022-11-26T01:08:58.556Z,12.50
2022-11-26T01:11:25.351Z,13.65
2022-11-26T01:13:53.265Z,15.88
2022-11-26T01:16:28.937Z,14.27
2022-11-26T01:18:58.086Z,13.23
2022-11-26T01:21:26.660Z,12.60
2022-11-26T01:23:53.371Z,12.77
2022-11-26T01:26:22.401Z,15.60
2022-11-26T01:28:49.583Z,12.13
2022-11-26T01:31:18.585Z,14.07
2022-11-26T01:33:45.387Z,13.93
2022-11-26T01:36:33.106Z,12.68
2022-11-26T01:39:20.823Z,16.95
2022-11-26T01:42:18.643Z,13.30
2022-11-26T01:44:45.451Z,15.18
2022-11-26T01:47:20.422Z,16.25
2022-11-26T01:50:24.599Z,13.20
2022-11-26T01:52:52.202Z,13.25
2022-11-26T01:55:19.257Z,15.68
2022-11-26T01:57:46.064Z,17.48
2022-11-26T02:00:13.354Z,14.88
2022-11-26T02:02:40.553Z,17.45
2022-11-26T02:05:21.294Z,16.50
2022-11-26T02:07:48.073Z,16.08
2022-11-26T02:10:15.198Z,16.05
2022-11-26T02:12:42.421Z,13.43
2022-11-26T02:15:10.411Z,17.02
2022-11-26T02:17:47.796Z,16.65
2022-11-26T02:20:39.235Z,18.30
2022-11-26T02:23:34.772Z,17.70
2022-11-26T02:26:04.112Z,16.00
2022-11-26T02:28:45.615Z,22.50
2022-11-26T02:31:16.810Z,20.00
2022-11-26T02:33:46.531Z,17.88
2022-11-26T02:36:41.558Z,17.77
2022-11-26T02:39:17.881Z,17.90
2022-11-26T02:41:46.455Z,20.13
2022-11-26T02:44:18.607Z,19.10
2022-11-26T02:46:49.457Z,17.98
2022-11-26T02:49:20.688Z,16.23
2022-11-26T02:51:50.273Z,18.67
2022-11-26T02:56:43.437Z,18.90
2022-11-26T02:59:10.178Z,16.33
2022-11-26T03:01:40.596Z,19.10
2022-11-26T03:04:10.051Z,18.60
2022-11-26T03:09:04.288Z,16.60
2022-11-26T03:11:30.847Z,18.08
2022-11-26T03:13:57.381Z,20.45
2022-11-26T03:16:23.988Z,15.35
2022-11-26T03:18:50.802Z,19.02
2022-11-26T03:21:17.369Z,17.10
2022-11-26T03:23:43.907Z,19.95
2022-11-26T03:26:10.476Z,16.73
2022-11-26T03:28:37.030Z,16.38
2022-11-26T03:31:03.534Z,14.13
2022-11-26T03:33:30.123Z,17.60
2022-11-26T03:35:56.676Z,18.30
2022-11-26T03:38:23.231Z,14.70
2022-11-26T03:41:03.814Z,18.58
2022-11-26T03:43:30.318Z,18.35
2022-11-26T03:45:57.344Z,19.45
2022-11-26T03:48:23.954Z,18.05
2022-11-26T03:50:50.469Z,15.98
2022-11-26T03:53:17.027Z,20.20
2022-11-26T03:55:43.534Z,19.20
2022-11-26T03:58:10.095Z,19.05
2022-11-26T04:00:36.614Z,15.77
2022-11-26T04:03:03.559Z,15.98
2022-11-26T04:05:30.194Z,19.65
2022-11-26T04:07:56.720Z,17.15
2022-11-26T04:10:23.323Z,20.75
2022-11-26T04:12:49.861Z,20.60
2022-11-26T04:15:16.755Z,15.20
2022-11-26T04:17:43.338Z,19.95
2022-11-26T04:20:10.235Z,16.92
2022-11-26T04:22:36.716Z,15.98
2022-11-26T04:25:03.569Z,17.17
2022-11-26T04:27:30.115Z,16.17
2022-11-26T04:29:56.585Z,15.73
2022-11-26T04:32:23.393Z,17.90
2022-11-26T04:34:49.920Z,17.40
2022-11-26T04:37:16.606Z,14.15
2022-11-26T04:39:43.136Z,18.00
2022-11-26T04:42:09.642Z,16.70
2022-11-26T04:44:36.377Z,18.50
2022-11-26T04:47:03.169Z,15.15
2022-11-26T04:49:29.697Z,20.55
2022-11-26T04:51:56.503Z,18.00
2022-11-26T04:54:23.071Z,17.55
2022-11-26T04:56:49.886Z,15.98
2022-11-26T04:59:16.664Z,16.52
2022-11-26T05:01:43.199Z,17.15
2022-11-26T05:04:09.782Z,14.52
2022-11-26T05:06:36.272Z,14.27
2022-11-26T05:09:03.427Z,17.25
2022-11-26T05:11:29.955Z,18.42
2022-11-26T05:13:56.533Z,18.30
2022-11-26T05:16:23.112Z,16.15
2022-11-26T05:18:49.617Z,15.55
2022-11-26T05:21:16.122Z,17.13
2022-11-26T05:23:42.666Z,17.58
2022-11-26T05:26:09.199Z,17.65
2022-11-26T05:28:35.716Z,18.77
2022-11-26T05:31:03.514Z,17.60
2022-11-26T05:33:30.639Z,16.48
2022-11-26T05:35:57.299Z,16.73
2022-11-26T05:38:24.363Z,15.75
2022-11-26T05:40:51.029Z,16.13
2022-11-26T05:43:17.936Z,15.60
2022-11-26T05:45:44.515Z,16.02
2022-11-26T05:48:11.329Z,19.60
2022-11-26T05:50:37.934Z,12.80
2022-11-26T05:53:05.041Z,15.95
2022-11-26T05:55:31.608Z,16.30
2022-11-26T05:57:58.221Z,17.77
2022-11-26T06:00:25.007Z,19.50
2022-11-26T06:02:51.605Z,17.17
2022-11-26T06:05:18.253Z,16.33
2022-11-26T06:07:45.315Z,13.38
2022-11-26T06:10:12.980Z,16.13
2022-11-26T06:12:39.578Z,16.70
2022-11-26T06:15:06.657Z,16.05
2022-11-26T06:17:33.152Z,15.50
2022-11-26T06:20:00.013Z,14.23
2022-11-26T06:22:26.879Z,17.25
2022-11-26T06:24:53.435Z,15.90
2022-11-26T06:27:19.946Z,14.30
2022-11-26T06:29:46.484Z,18.90
2022-11-26T06:32:12.922Z,13.73
2022-11-26T06:34:40.915Z,14.07
2022-11-26T06:37:10.150Z,12.73
2022-11-26T06:39:36.651Z,14.93
2022-11-26T06:42:03.235Z,18.00
2022-11-26T06:44:29.729Z,15.80
2022-11-26T06:46:56.236Z,18.55
2022-11-26T06:49:22.711Z,14.23
2022-11-26T06:51:49.231Z,12.75
2022-11-26T06:54:15.709Z,13.13
2022-11-26T06:56:42.171Z,16.25
2022-11-26T06:59:08.638Z,11.88
2022-11-26T07:01:35.622Z,17.20
2022-11-26T07:04:02.365Z,14.50
2022-11-26T07:06:31.095Z,13.20
2022-11-26T07:08:59.871Z,14.65
2022-11-26T07:11:26.597Z,11.98
2022-11-26T07:13:53.476Z,13.55
2022-11-26T07:16:20.318Z,10.50
2022-11-26T07:18:51.569Z,14.00
2022-11-26T07:21:19.143Z,11.48
2022-11-26T07:23:45.742Z,15.73
2022-11-26T07:26:13.786Z,13.70
2022-11-26T07:28:40.844Z,14.30
2022-11-26T07:31:15.878Z,13.20
2022-11-26T07:33:43.390Z,13.00
2022-11-26T07:36:14.931Z,12.32
2022-11-26T07:38:41.528Z,11.38
2022-11-26T07:41:11.177Z,13.73
2022-11-26T07:43:38.942Z,10.18
2022-11-26T07:46:07.260Z,13.98
2022-11-26T07:48:34.898Z,13.32
2022-11-26T07:51:02.510Z,11.40
2022-11-26T07:53:30.453Z,14.27
2022-11-26T07:55:57.575Z,11.80
2022-11-26T07:58:24.689Z,14.70
2022-11-26T08:00:54.638Z,14.18
2022-11-26T08:03:21.680Z,14.27
2022-11-26T08:05:48.146Z,13.43
2022-11-26T08:08:14.686Z,11.93
2022-11-26T08:10:41.316Z,11.75
2022-11-26T08:13:07.852Z,11.38
2022-11-26T08:15:35.562Z,10.40
2022-11-26T08:18:02.150Z,10.80
2022-11-26T08:20:29.250Z,10.05
2022-11-26T08:22:55.983Z,9.55
2022-11-26T08:25:22.493Z,9.13
2022-11-26T08:27:49.114Z,8.88
2022-11-26T08:30:15.763Z,8.88
2022-11-26T08:32:42.307Z,8.52
2022-11-26T08:35:08.945Z,9.25
2022-11-26T08:37:35.478Z,8.38
2022-11-26T08:40:02.052Z,8.35
2022-11-26T08:42:28.993Z,7.65
2022-11-26T08:44:55.507Z,9.07
2022-11-26T08:47:22.143Z,8.05
2022-11-26T08:49:49.637Z,6.95
2022-11-26T08:52:16.243Z,8.27
2022-11-26T08:54:45.251Z,7.72
2022-11-26T08:57:12.184Z,8.77
2022-11-26T08:59:38.659Z,9.90
2022-11-26T09:02:05.230Z,9.50
2022-11-26T09:04:32.095Z,7.72
2022-11-26T09:06:58.658Z,8.43
2022-11-26T09:09:25.360Z,9.07
2022-11-26T09:11:57.679Z,8.65
2022-11-26T09:14:26.325Z,8.25
2022-11-26T09:16:54.827Z,8.67
2022-11-26T09:19:21.546Z,8.10
2022-11-26T09:21:48.845Z,7.32
2022-11-26T09:24:16.676Z,8.43
2022-11-26T09:26:43.714Z,7.22
2022-11-26T09:29:14.309Z,8.73
2022-11-26T09:31:55.290Z,9.85
2022-11-26T09:34:27.702Z,9.85
2022-11-26T09:36:54.277Z,6.85
2022-11-26T09:39:20.825Z,8.43
2022-11-26T09:42:03.529Z,8.32
2022-11-26T09:44:51.785Z,8.45
2022-11-26T09:47:23.614Z,9.50
2022-11-26T09:50:01.185Z,9.23
2022-11-26T09:52:33.530Z,9.70
2022-11-26T09:55:05.909Z,6.45
2022-11-26T09:57:47.020Z,13.00
2022-11-26T10:00:29.080Z,8.48
2022-11-26T10:02:57.115Z,9.07
2022-11-26T10:05:56.418Z,8.35
2022-11-26T10:13:54.816Z,8.10
2022-11-26T10:16:28.483Z,9.05
2022-11-26T10:19:13.535Z,8.57
2022-11-26T10:21:58.547Z,8.82
2022-11-26T10:24:41.924Z,8.15
2022-11-26T10:27:15.148Z,7.25
2022-11-26T10:29:49.046Z,8.43
2022-11-26T10:32:15.575Z,8.55
2022-11-26T10:34:53.383Z,9.75
2022-11-26T10:37:21.962Z,7.50
2022-11-26T10:39:48.537Z,8.60
2022-11-26T10:42:18.707Z,9.98
2022-11-26T10:44:46.129Z,14.75
2022-11-26T10:47:28.468Z,9.65
2022-11-26T10:50:45.590Z,12.60
2022-11-26T10:53:05.318Z,12.30
2022-11-26T10:55:39.253Z,12.18
2022-11-26T10:58:13.204Z,10.25
2022-11-26T11:00:55.857Z,8.93
2022-11-26T11:03:38.514Z,8.80
2022-11-26T11:06:12.400Z,6.78
2022-11-26T11:08:39.013Z,6.75
2022-11-26T11:11:05.669Z,7.05
2022-11-26T11:13:43.335Z,7.45
2022-11-26T11:16:11.006Z,7.28
2022-11-26T11:18:38.048Z,8.43
2022-11-26T11:21:05.831Z,9.40
2022-11-26T11:24:07.294Z,9.77
2022-11-26T11:26:28.353Z,9.70
2022-11-26T11:28:55.339Z,12.27
2022-11-26T11:31:26.410Z,11.82
2022-11-26T11:34:12.934Z,14.52
2022-11-26T11:36:39.770Z,13.63
2022-11-26T11:39:06.329Z,11.10
2022-11-26T11:41:42.062Z,10.98
2022-11-26T11:44:39.846Z,12.02
2022-11-26T11:47:21.510Z,11.55
2022-11-26T11:49:58.535Z,15.00
2022-11-26T11:52:34.288Z,11.98
2022-11-26T11:55:12.873Z,11.10
2022-11-26T11:58:09.437Z,15.77
2022-11-26T12:01:06.545Z,13.43
2022-11-26T12:03:45.128Z,14.10
2022-11-26T12:06:33.944Z,12.13
2022-11-26T12:09:14.602Z,11.65
2022-11-26T12:11:44.038Z,11.30
2022-11-26T12:16:48.129Z,11.02
2022-11-26T12:19:30.025Z,10.13
2022-11-26T12:22:04.653Z,11.13
2022-11-26T12:24:35.582Z,13.32
2022-11-26T12:27:27.351Z,14.05
2022-11-26T12:29:57.888Z,11.70
2022-11-26T12:32:27.455Z,13.95
2022-11-26T12:34:57.561Z,12.18
2022-11-26T12:37:32.328Z,12.35
2022-11-26T12:40:06.562Z,12.75
2022-11-26T12:43:04.985Z,10.05
2022-11-26T12:45:55.293Z,11.00
2022-11-26T12:48:36.973Z,11.40
2022-11-26T12:51:18.895Z,10.90
2022-11-26T12:54:00.669Z,13.55
2022-11-26T12:56:55.408Z,12.55
2022-11-26T12:59:26.359Z,10.13
2022-11-26T13:01:52.987Z,10.15
2022-11-26T13:04:37.313Z,12.25
2022-11-26T13:07:19.865Z,11.98
2022-11-26T13:10:00.414Z,12.70
2022-11-26T13:12:46.725Z,15.68
2022-11-26T13:15:13.227Z,14.45
2022-11-26T13:17:50.044Z,15.63
2022-11-26T13:20:51.932Z,14.45
2022-11-26T13:23:33.621Z,17.27
2022-11-26T13:26:31.844Z,14.90
2022-11-26T13:29:24.640Z,16.13
2022-11-26T13:32:06.167Z,19.52
2022-11-26T13:34:49.368Z,14.88
2022-11-26T13:37:37.037Z,16.83
2022-11-26T13:40:32.819Z,18.02
2022-11-26T13:43:17.593Z,16.45
2022-11-26T13:46:00.338Z,17.88
2022-11-26T13:48:44.901Z,15.85
2022-11-26T13:51:36.209Z,20.63
2022-11-26T13:54:04.292Z,16.38
2022-11-26T13:56:32.424Z,22.00
2022-11-26T13:59:28.036Z,19.63
2022-11-26T14:01:55.168Z,20.00
2022-11-26T14:04:24.735Z,15.98
2022-11-26T14:09:41.969Z,18.90
2022-11-26T14:12:15.781Z,20.33
2022-11-26T14:14:46.882Z,20.20
2022-11-26T14:17:15.901Z,18.83
2022-11-26T14:19:42.550Z,21.33
2022-11-26T14:22:30.547Z,20.17
2022-11-26T14:25:00.380Z,21.55
2022-11-26T14:27:35.552Z,21.65
2022-11-26T14:30:08.447Z,22.52
2022-11-26T14:32:39.969Z,23.30
2022-11-26T14:35:21.562Z,26.90
2022-11-26T14:37:53.819Z,26.50
2022-11-26T14:40:25.103Z,22.73
2022-11-26T14:43:10.979Z,23.52
2022-11-26T14:45:37.729Z,29.33
2022-11-26T14:48:05.225Z,27.38
2022-11-26T14:50:33.460Z,22.33
2022-11-26T14:53:04.510Z,22.52
2022-11-26T14:55:31.835Z,24.55
2022-11-26T14:58:09.552Z,24.70
2022-11-26T15:00:36.733Z,22.67
2022-11-26T15:03:04.077Z,20.80
2022-11-26T15:05:33.211Z,21.77
2022-11-26T15:08:15.236Z,25.35
2022-11-26T15:10:55.753Z,21.80
2022-11-26T15:13:31.497Z,22.58
2022-11-26T15:16:00.462Z,20.42
2022-11-26T15:18:32.311Z,22.92
2022-11-26T15:21:00.891Z,20.88
2022-11-26T15:23:33.402Z,22.70
2022-11-26T15:26:00.868Z,25.60
2022-11-26T15:28:28.137Z,21.80
2022-11-26T15:30:58.771Z,22.10
2022-11-26T15:33:27.165Z,20.83
2022-11-26T15:36:02.771Z,22.17
2022-11-26T15:38:31.176Z,19.58
2022-11-26T15:41:26.777Z,21.33
2022-11-26T15:43:55.137Z,26.95
2022-11-26T15:46:25.373Z,22.70
2022-11-26T15:48:55.103Z,17.27
2022-11-26T15:51:41.461Z,20.67
2022-11-26T15:54:38.321Z,21.08
2022-11-26T15:57:24.428Z,19.90
2022-11-26T15:59:55.224Z,19.02
2022-11-26T16:02:23.966Z,19.08
2022-11-26T16:04:55.288Z,24.05
2022-11-26T16:07:27.759Z,21.50
2022-11-26T16:10:19.294Z,24.67
2022-11-26T16:13:17.668Z,24.75
2022-11-26T16:16:06.900Z,19.83
2022-11-26T16:18:39.312Z,19.63
2022-11-26T16:21:14.750Z,20.73
2022-11-26T16:23:41.836Z,18.77
2022-11-26T16:26:16.660Z,19.52
2022-11-26T16:28:44.559Z,20.90
2022-11-26T16:31:11.698Z,20.30
2022-11-26T16:33:38.662Z,20.40
2022-11-26T16:36:26.106Z,24.05
2022-11-26T16:38:53.337Z,25.25
2022-11-26T16:41:21.582Z,18.20
2022-11-26T16:43:48.937Z,16.52
2022-11-26T16:46:18.029Z,19.08
2022-11-26T16:48:45.752Z,18.05
2022-11-26T16:51:12.741Z,18.02
2022-11-26T16:53:39.544Z,21.77
2022-11-26T16:56:09.922Z,19.92
2022-11-26T16:58:38.013Z,18.80
2022-11-26T17:01:04.752Z,16.63
2022-11-26T17:03:33.355Z,18.50
2022-11-26T17:06:02.320Z,19.33
2022-11-26T17:08:30.179Z,17.63
2022-11-26T17:10:57.039Z,20.58
2022-11-26T17:13:23.516Z,16.80
2022-11-26T17:15:50.630Z,24.88
2022-11-26T17:18:23.235Z,20.33
2022-11-26T17:20:50.999Z,19.63
2022-11-26T17:23:17.877Z,21.10
2022-11-26T17:25:45.690Z,18.13
2022-11-26T17:28:13.554Z,21.77
2022-11-26T17:30:40.756Z,19.42
2022-11-26T17:33:08.105Z,21.05
2022-11-26T17:35:35.238Z,21.42
2022-11-26T17:38:02.220Z,19.05
2022-11-26T17:40:29.686Z,18.77
2022-11-26T17:42:56.604Z,18.27
2022-11-26T17:45:23.445Z,19.58
2022-11-26T17:47:50.025Z,17.85
2022-11-26T17:50:26.018Z,19.98
2022-11-26T17:52:53.247Z,19.85
2022-11-26T17:55:24.422Z,19.42
2022-11-26T17:57:51.580Z,18.02
2022-11-26T18:00:21.159Z,19.70
2022-11-26T18:05:14.556Z,15.85
2022-11-26T18:07:41.287Z,18.40
2022-11-26T18:10:12.763Z,17.45
2022-11-26T18:12:39.615Z,16.95
2022-11-26T18:15:07.725Z,17.80
2022-11-26T18:17:34.311Z,15.73
2022-11-26T18:20:01.151Z,16.75
2022-11-26T18:22:28.169Z,18.75
2022-11-26T18:24:57.176Z,20.90
2022-11-26T18:27:28.358Z,17.83
2022-11-26T18:29:54.865Z,18.73
2022-11-26T18:32:21.450Z,17.42
2022-11-26T18:34:53.407Z,14.52
2022-11-26T18:37:19.971Z,17.17
2022-11-26T18:39:46.611Z,15.32
2022-11-26T18:42:35.932Z,18.98
2022-11-26T18:45:03.471Z,18.98
2022-11-26T18:47:30.225Z,18.50
2022-11-26T18:49:56.756Z,17.88
2022-11-26T18:52:23.327Z,13.82
2022-11-26T18:54:49.910Z,18.33
2022-11-26T18:57:16.504Z,16.73
2022-11-26T18:59:46.761Z,17.10
2022-11-26T19:02:13.831Z,19.45
2022-11-26T19:04:40.756Z,20.70
2022-11-26T19:07:08.252Z,16.23
2022-11-26T19:09:34.904Z,18.52
2022-11-26T19:12:01.491Z,18.27
2022-11-26T19:14:28.091Z,19.33
2022-11-26T19:16:55.049Z,18.30
2022-11-26T19:19:21.899Z,21.10
2022-11-26T19:21:50.303Z,16.17
2022-11-26T19:24:17.323Z,15.70
2022-11-26T19:26:43.944Z,18.60
2022-11-26T19:29:12.433Z,14.02
2022-11-26T19:31:39.870Z,16.73
2022-11-26T19:34:09.975Z,16.13
2022-11-26T19:36:37.319Z,13.45
2022-11-26T19:39:05.397Z,12.95
2022-11-26T19:41:32.459Z,12.55
2022-11-26T19:44:00.604Z,13.57
2022-11-26T19:46:27.552Z,15.90
2022-11-26T19:48:56.429Z,18.30
2022-11-26T19:51:24.984Z,13.77
2022-11-26T19:53:52.815Z,15.77
2022-11-26T19:56:22.093Z,17.67
2022-11-26T19:58:48.627Z,12.60
2022-11-26T20:01:17.220Z,14.50
2022-11-26T20:03:44.001Z,14.57
2022-11-26T20:06:22.404Z,15.80
2022-11-26T20:08:49.205Z,13.50
2022-11-26T20:11:17.026Z,13.93
2022-11-26T20:13:44.581Z,15.93
2022-11-26T20:16:22.926Z,10.98
2022-11-26T20:18:50.033Z,14.38
2022-11-26T20:21:21.118Z,16.15
2022-11-26T20:23:48.763Z,12.55
2022-11-26T20:26:25.222Z,13.60
2022-11-26T20:28:52.708Z,13.93
2022-11-26T20:31:23.601Z,13.07
2022-11-26T20:33:52.743Z,15.20
2022-11-26T20:36:23.204Z,19.97
2022-11-26T20:38:59.380Z,16.05
2022-11-26T20:41:26.818Z,11.70
2022-11-26T20:43:58.489Z,10.93
2022-11-26T20:46:27.451Z,11.90
2022-11-26T20:48:54.445Z,14.35
2022-11-26T20:51:22.170Z,14.13
2022-11-26T20:53:52.452Z,15.05
2022-11-26T20:56:22.513Z,16.88
2022-11-26T20:58:49.955Z,14.05
2022-11-26T21:01:17.747Z,12.55
2022-11-26T21:03:44.947Z,21.65
2022-11-26T21:06:16.272Z,10.50
2022-11-26T21:08:43.255Z,14.02
2022-11-26T21:11:10.779Z,17.48
2022-11-26T21:13:38.645Z,14.38
2022-11-26T21:16:07.153Z,14.60
2022-11-26T21:18:34.237Z,18.05
2022-11-26T21:21:01.446Z,16.40
2022-11-26T21:23:27.986Z,17.70
2022-11-26T21:25:54.587Z,14.43
2022-11-26T21:28:21.217Z,17.20
2022-11-26T21:30:47.826Z,13.85
2022-11-26T21:33:14.739Z,14.60
2022-11-26T21:35:41.269Z,11.73
2022-11-26T21:38:07.809Z,20.08
2022-11-26T21:40:34.345Z,20.23
2022-11-26T21:43:00.904Z,16.00
2022-11-26T21:45:27.874Z,14.27
2022-11-26T21:47:54.675Z,21.60
2022-11-26T21:50:21.294Z,17.52
2022-11-26T21:52:47.865Z,13.32
2022-11-26T21:55:14.523Z,19.30
2022-11-26T21:57:41.118Z,15.73
2022-11-26T22:00:08.575Z,17.05
2022-11-26T22:02:35.235Z,16.35
2022-11-26T22:05:01.901Z,15.57
2022-11-26T22:07:30.186Z,16.10
2022-11-26T22:09:57.057Z,13.43
2022-11-26T22:12:23.628Z,15.02
2022-11-26T22:14:50.151Z,11.18
2022-11-26T22:17:16.926Z,11.80
2022-11-26T22:19:43.505Z,13.73
2022-11-26T22:22:10.141Z,17.20
2022-11-26T22:24:36.636Z,19.08
2022-11-26T22:27:03.545Z,17.02
2022-11-26T22:29:30.582Z,11.38
2022-11-26T22:31:57.142Z,13.07
2022-11-26T22:34:24.696Z,17.10
2022-11-26T22:36:51.358Z,17.50
2022-11-26T22:39:18.724Z,15.15
2022-11-26T22:41:46.440Z,16.23
2022-11-26T22:44:13.910Z,19.20
2022-11-26T22:46:40.526Z,13.18
2022-11-26T22:49:13.291Z,13.95
2022-11-26T22:51:40.026Z,15.55
2022-11-26T22:54:08.067Z,13.23
2022-11-26T22:56:37.830Z,12.55
2022-11-26T22:59:06.157Z,15.20
2022-11-26T23:01:34.071Z,13.80
2022-11-26T23:04:02.215Z,13.77
2022-11-26T23:06:30.230Z,18.35
2022-11-26T23:08:57.818Z,12.75
2022-11-26T23:11:27.125Z,16.98
2022-11-26T23:13:54.282Z,10.85
2022-11-26T23:16:21.901Z,15.00
2022-11-26T23:18:48.772Z,13.18
2022-11-26T23:21:21.311Z,15.32
2022-11-26T23:23:48.540Z,15.82
2022-11-26T23:26:23.179Z,13.57
2022-11-26T23:28:53.447Z,13.02
2022-11-26T23:31:22.504Z,18.95
2022-11-26T23:33:49.910Z,15.10
2022-11-26T23:36:17.034Z,12.25
2022-11-26T23:38:43.811Z,12.05
2022-11-26T23:41:10.448Z,20.27
2022-11-26T23:43:38.142Z,13.88
2022-11-26T23:46:06.750Z,14.35
2022-11-26T23:48:36.563Z,16.83
2022-11-26T23:51:08.157Z,16.30
2022-11-26T23:53:39.606Z,18.48
2022-11-26T23:56:08.825Z,17.35
2022-11-26T23:58:35.410Z,14.68
